sensor_id;sensor_type;location;lat;lon;timestamp;pressure;altitude;pressure_sealevel;temperature;humidity
35888;BME280;21990;42.540;23.496;2023-05-01T09:24:10;93616.38;;;20.67;43.76
35888;BME280;21990;42.540;23.496;2023-05-01T09:26:39;93613.81;;;20.61;43.53
35888;BME280;21990;42.540;23.496;2023-05-01T09:29:06;93617.97;;;20.51;43.13
35888;BME280;21990;42.540;23.496;2023-05-01T09:31:33;93615.44;;;20.28;41.04
35888;BME280;21990;42.540;23.496;2023-05-01T09:33:59;93621.53;;;19.78;40.86
35888;BME280;21990;42.540;23.496;2023-05-01T09:36:54;93614.06;;;19.92;44.97
35888;BME280;21990;42.540;23.496;2023-05-01T09:39:25;93617.63;;;20.10;43.16
35888;BME280;21990;42.540;23.496;2023-05-01T09:41:53;93617.31;;;20.06;42.53
35888;BME280;21990;42.540;23.496;2023-05-01T09:44:19;93614.97;;;20.22;42.00
35888;BME280;21990;42.540;23.496;2023-05-01T09:46:47;93606.31;;;20.39;41.64
35888;BME280;21990;42.540;23.496;2023-05-01T09:49:14;93609.63;;;20.35;42.54
35888;BME280;21990;42.540;23.496;2023-05-01T09:51:40;93607.38;;;20.34;43.06
35888;BME280;21990;42.540;23.496;2023-05-01T09:54:18;93608.78;;;20.43;44.23
35888;BME280;21990;42.540;23.496;2023-05-01T09:56:52;93603.25;;;20.54;44.08
35888;BME280;21990;42.540;23.496;2023-05-01T09:59:28;93607.81;;;20.30;43.37
35888;BME280;21990;42.540;23.496;2023-05-01T10:01:56;93617.63;;;20.10;44.47
35888;BME280;21990;42.540;23.496;2023-05-01T10:04:32;93611.59;;;20.06;43.41
35888;BME280;21990;42.540;23.496;2023-05-01T10:07:12;93619.19;;;20.21;45.65
35888;BME280;21990;42.540;23.496;2023-05-01T10:09:37;93606.69;;;20.62;49.40
35888;BME280;21990;42.540;23.496;2023-05-01T10:12:03;93609.50;;;20.99;48.81
35888;BME280;21990;42.540;23.496;2023-05-01T10:14:29;93600.66;;;21.14;49.07
35888;BME280;21990;42.540;23.496;2023-05-01T10:16:59;93611.38;;;21.23;51.48
35888;BME280;21990;42.540;23.496;2023-05-01T10:19:33;93607.59;;;21.20;47.73
35888;BME280;21990;42.540;23.496;2023-05-01T10:21:58;93605.72;;;21.06;47.08
35888;BME280;21990;42.540;23.496;2023-05-01T10:24:24;93595.69;;;21.24;54.75
35888;BME280;21990;42.540;23.496;2023-05-01T10:26:50;93598.69;;;21.45;49.88
35888;BME280;21990;42.540;23.496;2023-05-01T10:29:18;93599.28;;;21.34;47.03
35888;BME280;21990;42.540;23.496;2023-05-01T10:31:45;93604.28;;;21.24;49.19
35888;BME280;21990;42.540;23.496;2023-05-01T10:34:15;93601.81;;;21.11;48.44
35888;BME280;21990;42.540;23.496;2023-05-01T10:36:44;93593.81;;;21.00;48.55
35888;BME280;21990;42.540;23.496;2023-05-01T10:42:10;93590.19;;;20.80;51.91
35888;BME280;21990;42.540;23.496;2023-05-01T10:44:48;93595.19;;;20.89;51.64
35888;BME280;21990;42.540;23.496;2023-05-01T10:57:58;93584.50;;;21.18;50.36
35888;BME280;21990;42.540;23.496;2023-05-01T11:00:27;93573.06;;;21.18;50.02
35888;BME280;21990;42.540;23.496;2023-05-01T11:08:31;93618.47;;;20.66;47.92
35888;BME280;21990;42.540;23.496;2023-05-01T11:10:56;93609.47;;;20.33;47.21
35888;BME280;21990;42.540;23.496;2023-05-01T11:18:53;93624.88;;;19.06;46.31
35888;BME280;21990;42.540;23.496;2023-05-01T11:21:27;93618.81;;;19.02;46.57
35888;BME280;21990;42.540;23.496;2023-05-01T11:23:53;93638.72;;;18.75;46.39
35888;BME280;21990;42.540;23.496;2023-05-01T11:26:18;93637.44;;;18.44;47.62
35888;BME280;21990;42.540;23.496;2023-05-01T11:28:46;93642.88;;;18.25;46.97
35888;BME280;21990;42.540;23.496;2023-05-01T11:31:18;93644.00;;;18.05;47.36
35888;BME280;21990;42.540;23.496;2023-05-01T11:33:44;93643.34;;;17.89;49.08
35888;BME280;21990;42.540;23.496;2023-05-01T11:36:10;93645.56;;;17.66;49.12
35888;BME280;21990;42.540;23.496;2023-05-01T11:38:36;93642.75;;;17.50;48.53
35888;BME280;21990;42.540;23.496;2023-05-01T11:41:01;93650.63;;;17.35;48.68
35888;BME280;21990;42.540;23.496;2023-05-01T11:43:28;93646.59;;;17.38;49.17
35888;BME280;21990;42.540;23.496;2023-05-01T11:45:54;93637.13;;;17.28;47.88
35888;BME280;21990;42.540;23.496;2023-05-01T11:48:28;93640.31;;;17.39;48.64
35888;BME280;21990;42.540;23.496;2023-05-01T11:50:54;93647.47;;;17.55;48.14
35888;BME280;21990;42.540;23.496;2023-05-01T11:53:20;93631.53;;;17.60;48.30
35888;BME280;21990;42.540;23.496;2023-05-01T11:55:45;93638.88;;;17.71;47.33
35888;BME280;21990;42.540;23.496;2023-05-01T11:58:11;93632.69;;;17.57;47.56
35888;BME280;21990;42.540;23.496;2023-05-01T12:00:38;93643.28;;;17.56;46.88
35888;BME280;21990;42.540;23.496;2023-05-01T12:03:06;93642.75;;;17.50;47.29
35888;BME280;21990;42.540;23.496;2023-05-01T12:05:32;93644.13;;;17.42;46.27
35888;BME280;21990;42.540;23.496;2023-05-01T12:08:08;93640.28;;;17.47;47.03
35888;BME280;21990;42.540;23.496;2023-05-01T12:10:35;93645.81;;;17.45;47.54
35888;BME280;21990;42.540;23.496;2023-05-01T12:13:04;93649.03;;;17.49;49.05
35888;BME280;21990;42.540;23.496;2023-05-01T12:15:31;93649.22;;;17.43;48.54
35888;BME280;21990;42.540;23.496;2023-05-01T12:18:00;93639.31;;;17.52;47.59
35888;BME280;21990;42.540;23.496;2023-05-01T12:20:39;93633.59;;;17.60;49.49
35888;BME280;21990;42.540;23.496;2023-05-01T12:23:08;93631.84;;;17.72;48.47
35888;BME280;21990;42.540;23.496;2023-05-01T12:25:40;93636.31;;;17.82;48.21
35888;BME280;21990;42.540;23.496;2023-05-01T12:28:18;93637.22;;;17.92;47.46
35888;BME280;21990;42.540;23.496;2023-05-01T12:30:47;93634.44;;;17.85;46.36
35888;BME280;21990;42.540;23.496;2023-05-01T12:33:16;93630.94;;;17.94;47.22
35888;BME280;21990;42.540;23.496;2023-05-01T12:35:42;93637.66;;;18.14;47.09
35888;BME280;21990;42.540;23.496;2023-05-01T12:38:28;93635.63;;;18.31;45.21
35888;BME280;21990;42.540;23.496;2023-05-01T12:40:57;93639.28;;;18.49;47.26
35888;BME280;21990;42.540;23.496;2023-05-01T12:43:30;93663.44;;;18.56;46.91
35888;BME280;21990;42.540;23.496;2023-05-01T12:45:56;93643.09;;;18.52;47.71
35888;BME280;21990;42.540;23.496;2023-05-01T12:48:21;93651.50;;;18.42;46.95
35888;BME280;21990;42.540;23.496;2023-05-01T12:50:47;93642.69;;;18.55;45.77
35888;BME280;21990;42.540;23.496;2023-05-01T12:53:23;93651.13;;;18.70;46.21
35888;BME280;21990;42.540;23.496;2023-05-01T12:55:53;93651.03;;;18.95;46.24
35888;BME280;21990;42.540;23.496;2023-05-01T12:58:37;93633.56;;;18.91;43.42
35888;BME280;21990;42.540;23.496;2023-05-01T13:01:04;93640.56;;;18.98;42.92
35888;BME280;21990;42.540;23.496;2023-05-01T13:03:30;93645.88;;;19.01;43.79
35888;BME280;21990;42.540;23.496;2023-05-01T13:05:58;93650.13;;;18.92;44.90
35888;BME280;21990;42.540;23.496;2023-05-01T13:10:52;93652.41;;;18.94;43.88
35888;BME280;21990;42.540;23.496;2023-05-01T13:13:28;93657.84;;;19.00;43.54
35888;BME280;21990;42.540;23.496;2023-05-01T13:16:04;93660.47;;;19.05;44.85
35888;BME280;21990;42.540;23.496;2023-05-01T13:18:41;93664.91;;;18.81;44.08
35888;BME280;21990;42.540;23.496;2023-05-01T13:21:07;93663.63;;;18.50;46.14
35888;BME280;21990;42.540;23.496;2023-05-01T13:23:34;93659.06;;;18.55;46.66
35888;BME280;21990;42.540;23.496;2023-05-01T13:26:00;93668.41;;;18.47;48.17
35888;BME280;21990;42.540;23.496;2023-05-01T13:28:26;93660.69;;;18.33;48.32
35888;BME280;21990;42.540;23.496;2023-05-01T13:30:53;93663.56;;;18.33;49.16
35888;BME280;21990;42.540;23.496;2023-05-01T13:33:20;93661.25;;;18.39;50.59
35888;BME280;21990;42.540;23.496;2023-05-01T13:35:45;93668.63;;;18.42;49.84
35888;BME280;21990;42.540;23.496;2023-05-01T13:38:13;93668.38;;;18.55;49.90
35888;BME280;21990;42.540;23.496;2023-05-01T13:40:47;93667.13;;;18.66;49.19
35888;BME280;21990;42.540;23.496;2023-05-01T13:43:14;93667.91;;;18.66;48.69
35888;BME280;21990;42.540;23.496;2023-05-01T13:45:41;93677.97;;;18.67;50.02
35888;BME280;21990;42.540;23.496;2023-05-01T13:48:07;93671.25;;;18.72;49.91
35888;BME280;21990;42.540;23.496;2023-05-01T13:50:34;93675.59;;;18.48;48.94
35888;BME280;21990;42.540;23.496;2023-05-01T13:53:04;93674.25;;;18.57;50.08
35888;BME280;21990;42.540;23.496;2023-05-01T13:55:33;93668.75;;;18.76;49.17
35888;BME280;21990;42.540;23.496;2023-05-01T13:57:59;93657.38;;;18.93;49.17
35888;BME280;21990;42.540;23.496;2023-05-01T14:00:27;93671.63;;;18.93;48.45
35888;BME280;21990;42.540;23.496;2023-05-01T14:02:53;93664.81;;;18.89;48.81
35888;BME280;21990;42.540;23.496;2023-05-01T14:05:25;93667.09;;;18.90;48.21
35888;BME280;21990;42.540;23.496;2023-05-01T14:07:54;93666.91;;;18.88;50.73
35888;BME280;21990;42.540;23.496;2023-05-01T14:10:25;93671.63;;;18.93;50.93
35888;BME280;21990;42.540;23.496;2023-05-01T14:12:53;93658.56;;;18.66;48.34
35888;BME280;21990;42.540;23.496;2023-05-01T14:15:19;93665.38;;;18.70;49.93
35888;BME280;21990;42.540;23.496;2023-05-01T14:17:44;93661.94;;;18.72;48.85
35888;BME280;21990;42.540;23.496;2023-05-01T14:20:11;93660.09;;;18.67;47.05
35888;BME280;21990;42.540;23.496;2023-05-01T14:22:41;93668.97;;;18.46;47.88
35888;BME280;21990;42.540;23.496;2023-05-01T14:25:16;93660.31;;;18.36;48.47
35888;BME280;21990;42.540;23.496;2023-05-01T14:27:50;93665.91;;;18.27;48.65
35888;BME280;21990;42.540;23.496;2023-05-01T14:30:26;93661.00;;;18.20;49.49
35888;BME280;21990;42.540;23.496;2023-05-01T14:32:52;93664.22;;;18.24;49.42
35888;BME280;21990;42.540;23.496;2023-05-01T14:35:21;93656.94;;;18.30;50.44
35888;BME280;21990;42.540;23.496;2023-05-01T14:37:47;93651.34;;;18.40;49.51
35888;BME280;21990;42.540;23.496;2023-05-01T14:40:13;93661.81;;;18.37;49.18
35888;BME280;21990;42.540;23.496;2023-05-01T14:42:42;93658.03;;;18.35;49.50
35888;BME280;21990;42.540;23.496;2023-05-01T14:45:14;93654.78;;;18.38;49.89
35888;BME280;21990;42.540;23.496;2023-05-01T14:48:01;93651.28;;;18.23;50.22
35888;BME280;21990;42.540;23.496;2023-05-01T14:50:29;93657.75;;;18.23;50.62
35888;BME280;21990;42.540;23.496;2023-05-01T14:52:56;93657.91;;;18.25;48.90
35888;BME280;21990;42.540;23.496;2023-05-01T14:55:24;93658.72;;;18.18;50.14
35888;BME280;21990;42.540;23.496;2023-05-01T14:58:09;93671.16;;;18.06;50.19
35888;BME280;21990;42.540;23.496;2023-05-01T15:00:36;93665.94;;;17.87;49.67
35888;BME280;21990;42.540;23.496;2023-05-01T15:03:02;93664.78;;;17.90;51.16
35888;BME280;21990;42.540;23.496;2023-05-01T15:05:27;93663.06;;;17.94;50.46
35888;BME280;21990;42.540;23.496;2023-05-01T15:07:56;93658.81;;;18.03;50.38
35888;BME280;21990;42.540;23.496;2023-05-01T15:10:23;93667.56;;;18.05;50.36
35888;BME280;21990;42.540;23.496;2023-05-01T15:12:49;93659.22;;;17.99;50.01
35888;BME280;21990;42.540;23.496;2023-05-01T15:15:15;93665.66;;;18.08;49.37
35888;BME280;21990;42.540;23.496;2023-05-01T15:17:41;93661.88;;;18.05;50.09
35888;BME280;21990;42.540;23.496;2023-05-01T15:20:08;93663.78;;;18.02;49.76
35888;BME280;21990;42.540;23.496;2023-05-01T15:22:33;93661.28;;;18.07;50.05
35888;BME280;21990;42.540;23.496;2023-05-01T15:24:59;93662.84;;;18.00;48.41
35888;BME280;21990;42.540;23.496;2023-05-01T15:27:25;93671.13;;;17.81;49.64
35888;BME280;21990;42.540;23.496;2023-05-01T15:29:50;93664.09;;;17.82;48.96
35888;BME280;21990;42.540;23.496;2023-05-01T15:32:16;93661.56;;;17.93;49.77
35888;BME280;21990;42.540;23.496;2023-05-01T15:34:41;93669.72;;;17.97;49.72
35888;BME280;21990;42.540;23.496;2023-05-01T15:37:08;93671.03;;;17.96;49.29
35888;BME280;21990;42.540;23.496;2023-05-01T15:39:34;93675.88;;;17.78;51.05
35888;BME280;21990;42.540;23.496;2023-05-01T15:42:00;93666.03;;;17.72;51.56
35888;BME280;21990;42.540;23.496;2023-05-01T15:44:29;93670.25;;;17.55;52.23
35888;BME280;21990;42.540;23.496;2023-05-01T15:46:55;93674.13;;;17.43;52.69
35888;BME280;21990;42.540;23.496;2023-05-01T15:49:21;93679.84;;;17.28;53.13
35888;BME280;21990;42.540;23.496;2023-05-01T15:51:47;93674.94;;;17.28;52.68
35888;BME280;21990;42.540;23.496;2023-05-01T15:54:12;93682.53;;;17.26;52.38
35888;BME280;21990;42.540;23.496;2023-05-01T15:56:38;93676.66;;;17.16;52.25
35888;BME280;21990;42.540;23.496;2023-05-01T15:59:06;93671.97;;;17.11;52.16
35888;BME280;21990;42.540;23.496;2023-05-01T16:01:33;93670.22;;;17.08;52.51
35888;BME280;21990;42.540;23.496;2023-05-01T16:03:59;93673.88;;;17.01;52.74
35888;BME280;21990;42.540;23.496;2023-05-01T16:06:24;93678.22;;;17.02;52.84
35888;BME280;21990;42.540;23.496;2023-05-01T16:08:50;93665.72;;;16.97;53.54
35888;BME280;21990;42.540;23.496;2023-05-01T16:11:17;93670.44;;;17.02;52.55
35888;BME280;21990;42.540;23.496;2023-05-01T16:13:42;93676.56;;;16.91;52.54
35888;BME280;21990;42.540;23.496;2023-05-01T16:16:08;93668.41;;;16.80;53.52
35888;BME280;21990;42.540;23.496;2023-05-01T16:18:39;93668.03;;;16.76;53.72
35888;BME280;21990;42.540;23.496;2023-05-01T16:21:08;93673.75;;;16.76;53.42
35888;BME280;21990;42.540;23.496;2023-05-01T16:23:33;93684.00;;;16.64;53.85
35888;BME280;21990;42.540;23.496;2023-05-01T16:25:59;93673.75;;;16.61;54.63
35888;BME280;21990;42.540;23.496;2023-05-01T16:28:24;93679.06;;;16.65;54.70
35888;BME280;21990;42.540;23.496;2023-05-01T16:30:50;93680.00;;;16.67;54.60
35888;BME280;21990;42.540;23.496;2023-05-01T16:33:16;93684.91;;;16.51;55.50
35888;BME280;21990;42.540;23.496;2023-05-01T16:35:45;93680.91;;;16.54;55.97
35888;BME280;21990;42.540;23.496;2023-05-01T16:38:10;93681.50;;;16.53;55.69
35888;BME280;21990;42.540;23.496;2023-05-01T16:40:36;93681.88;;;16.34;56.25
35888;BME280;21990;42.540;23.496;2023-05-01T16:43:02;93691.91;;;16.28;57.27
35888;BME280;21990;42.540;23.496;2023-05-01T16:45:29;93689.84;;;16.43;56.95
35888;BME280;21990;42.540;23.496;2023-05-01T16:47:55;93687.56;;;16.42;57.06
35888;BME280;21990;42.540;23.496;2023-05-01T16:50:21;93686.06;;;16.41;57.14
35888;BME280;21990;42.540;23.496;2023-05-01T16:52:47;93688.69;;;16.46;58.33
35888;BME280;21990;42.540;23.496;2023-05-01T16:55:13;93697.22;;;16.54;58.25
35888;BME280;21990;42.540;23.496;2023-05-01T16:57:38;93690.63;;;16.59;59.41
35888;BME280;21990;42.540;23.496;2023-05-01T17:00:05;93686.06;;;16.56;59.46
35888;BME280;21990;42.540;23.496;2023-05-01T17:02:32;93698.22;;;16.56;59.85
35888;BME280;21990;42.540;23.496;2023-05-01T17:04:58;93703.88;;;16.41;60.63
35888;BME280;21990;42.540;23.496;2023-05-01T17:07:24;93704.44;;;16.47;60.01
35888;BME280;21990;42.540;23.496;2023-05-01T17:09:49;93702.34;;;16.40;60.37
35888;BME280;21990;42.540;23.496;2023-05-01T17:12:15;93706.53;;;16.39;59.79
35888;BME280;21990;42.540;23.496;2023-05-01T17:14:40;93706.91;;;16.28;61.16
35888;BME280;21990;42.540;23.496;2023-05-01T17:17:05;93713.34;;;16.29;60.90
35888;BME280;21990;42.540;23.496;2023-05-01T17:19:31;93707.28;;;16.25;61.25
35888;BME280;21990;42.540;23.496;2023-05-01T17:21:56;93721.66;;;16.19;61.47
35888;BME280;21990;42.540;23.496;2023-05-01T17:24:24;93726.19;;;16.07;62.32
35888;BME280;21990;42.540;23.496;2023-05-01T17:26:51;93727.13;;;15.94;62.43
35888;BME280;21990;42.540;23.496;2023-05-01T17:29:16;93729.00;;;15.92;62.01
35888;BME280;21990;42.540;23.496;2023-05-01T17:31:41;93726.50;;;15.81;62.01
35888;BME280;21990;42.540;23.496;2023-05-01T17:34:07;93733.31;;;15.78;62.72
35888;BME280;21990;42.540;23.496;2023-05-01T17:36:33;93734.03;;;15.63;63.34
35888;BME280;21990;42.540;23.496;2023-05-01T17:38:58;93746.31;;;15.58;63.33
35888;BME280;21990;42.540;23.496;2023-05-01T17:41:25;93752.00;;;15.58;63.45
35888;BME280;21990;42.540;23.496;2023-05-01T17:43:51;93745.91;;;15.54;64.21
35888;BME280;21990;42.540;23.496;2023-05-01T17:46:16;93752.56;;;15.28;65.25
35888;BME280;21990;42.540;23.496;2023-05-01T17:48:42;93755.16;;;15.18;65.05
35888;BME280;21990;42.540;23.496;2023-05-01T17:51:08;93748.53;;;15.16;65.59
35888;BME280;21990;42.540;23.496;2023-05-01T17:53:33;93758.19;;;15.13;65.64
35888;BME280;21990;42.540;23.496;2023-05-01T17:55:59;93763.81;;;15.05;65.65
35888;BME280;21990;42.540;23.496;2023-05-01T17:58:24;93760.91;;;14.98;66.15
35888;BME280;21990;42.540;23.496;2023-05-01T18:00:50;93767.03;;;14.60;67.19
35888;BME280;21990;42.540;23.496;2023-05-01T18:03:15;93763.84;;;14.64;66.52
35888;BME280;21990;42.540;23.496;2023-05-01T18:05:41;93765.09;;;14.55;66.96
35888;BME280;21990;42.540;23.496;2023-05-01T18:08:06;93781.72;;;14.51;67.08
35888;BME280;21990;42.540;23.496;2023-05-01T18:10:31;93774.53;;;14.50;68.24
35888;BME280;21990;42.540;23.496;2023-05-01T18:12:57;93776.31;;;14.40;67.83
35888;BME280;21990;42.540;23.496;2023-05-01T18:15:22;93770.56;;;14.33;67.73
35888;BME280;21990;42.540;23.496;2023-05-01T18:17:48;93779.69;;;14.18;69.15
35888;BME280;21990;42.540;23.496;2023-05-01T18:20:13;93782.94;;;14.22;68.39
35888;BME280;21990;42.540;23.496;2023-05-01T18:22:39;93780.91;;;14.09;69.33
35888;BME280;21990;42.540;23.496;2023-05-01T18:25:04;93782.88;;;14.01;69.17
35888;BME280;21990;42.540;23.496;2023-05-01T18:27:30;93784.97;;;14.01;69.41
35888;BME280;21990;42.540;23.496;2023-05-01T18:29:55;93788.13;;;13.97;69.31
35888;BME280;21990;42.540;23.496;2023-05-01T18:32:21;93790.69;;;13.88;69.76
35888;BME280;21990;42.540;23.496;2023-05-01T18:34:46;93785.81;;;13.75;69.78
35888;BME280;21990;42.540;23.496;2023-05-01T18:37:15;93790.19;;;13.76;69.91
35888;BME280;21990;42.540;23.496;2023-05-01T18:39:40;93804.78;;;13.67;70.27
35888;BME280;21990;42.540;23.496;2023-05-01T18:42:06;93802.28;;;13.63;70.48
35888;BME280;21990;42.540;23.496;2023-05-01T18:44:32;93801.84;;;13.59;70.84
35888;BME280;21990;42.540;23.496;2023-05-01T18:46:58;93809.97;;;13.42;70.99
35888;BME280;21990;42.540;23.496;2023-05-01T18:49:23;93809.97;;;13.42;71.10
35888;BME280;21990;42.540;23.496;2023-05-01T18:51:49;93808.75;;;13.38;71.48
35888;BME280;21990;42.540;23.496;2023-05-01T18:54:15;93808.31;;;13.34;71.29
35888;BME280;21990;42.540;23.496;2023-05-01T18:56:41;93812.25;;;13.30;71.79
35888;BME280;21990;42.540;23.496;2023-05-01T18:59:06;93821.25;;;13.16;71.96
35888;BME280;21990;42.540;23.496;2023-05-01T19:01:31;93827.25;;;13.12;72.11
35888;BME280;21990;42.540;23.496;2023-05-01T19:03:57;93825.13;;;13.00;72.84
35888;BME280;21990;42.540;23.496;2023-05-01T19:06:27;93822.63;;;12.96;73.05
35888;BME280;21990;42.540;23.496;2023-05-01T19:08:52;93819.38;;;12.92;72.36
35888;BME280;21990;42.540;23.496;2023-05-01T19:11:18;93827.31;;;12.94;72.57
35888;BME280;21990;42.540;23.496;2023-05-01T19:13:43;93824.81;;;12.90;73.01
35888;BME280;21990;42.540;23.496;2023-05-01T19:16:09;93836.78;;;12.83;72.83
35888;BME280;21990;42.540;23.496;2023-05-01T19:18:35;93831.97;;;12.78;73.10
35888;BME280;21990;42.540;23.496;2023-05-01T19:21:02;93834.44;;;12.68;73.04
35888;BME280;21990;42.540;23.496;2023-05-01T19:23:29;93832.38;;;12.69;73.44
35888;BME280;21990;42.540;23.496;2023-05-01T19:25:58;93839.97;;;12.61;73.02
35888;BME280;21990;42.540;23.496;2023-05-01T19:28:24;93840.94;;;12.50;73.89
35888;BME280;21990;42.540;23.496;2023-05-01T19:30:49;93845.69;;;12.42;74.27
35888;BME280;21990;42.540;23.496;2023-05-01T19:33:15;93846.00;;;12.38;74.46
35888;BME280;21990;42.540;23.496;2023-05-01T19:35:40;93845.03;;;12.36;74.13
35888;BME280;21990;42.540;23.496;2023-05-01T19:38:05;93845.56;;;12.34;74.11
35888;BME280;21990;42.540;23.496;2023-05-01T19:40:31;93841.81;;;12.26;74.12
35888;BME280;21990;42.540;23.496;2023-05-01T19:42:56;93851.06;;;12.27;73.80
35888;BME280;21990;42.540;23.496;2023-05-01T19:45:22;93848.25;;;12.27;73.86
35888;BME280;21990;42.540;23.496;2023-05-01T19:47:47;93852.16;;;12.24;74.29
35888;BME280;21990;42.540;23.496;2023-05-01T19:50:15;93857.97;;;12.13;74.58
35888;BME280;21990;42.540;23.496;2023-05-01T19:52:40;93851.16;;;12.03;74.77
35888;BME280;21990;42.540;23.496;2023-05-01T19:55:06;93847.53;;;11.89;75.58
35888;BME280;21990;42.540;23.496;2023-05-01T19:57:32;93849.97;;;11.79;75.64
35888;BME280;21990;42.540;23.496;2023-05-01T19:59:57;93850.09;;;11.68;76.07
35888;BME280;21990;42.540;23.496;2023-05-01T20:02:23;93847.50;;;11.70;75.53
35888;BME280;21990;42.540;23.496;2023-05-01T20:04:49;93851.34;;;11.73;75.67
35888;BME280;21990;42.540;23.496;2023-05-01T20:07:14;93849.81;;;11.72;75.14
35888;BME280;21990;42.540;23.496;2023-05-01T20:09:39;93847.66;;;11.59;76.44
35888;BME280;21990;42.540;23.496;2023-05-01T20:12:05;93853.06;;;11.57;76.22
35888;BME280;21990;42.540;23.496;2023-05-01T20:14:30;93857.72;;;11.55;76.46
35888;BME280;21990;42.540;23.496;2023-05-01T20:16:56;93856.53;;;11.44;76.31
35888;BME280;21990;42.540;23.496;2023-05-01T20:19:21;93850.69;;;11.42;75.96
35888;BME280;21990;42.540;23.496;2023-05-01T20:21:47;93839.91;;;11.41;75.85
35888;BME280;21990;42.540;23.496;2023-05-01T20:24:12;93852.44;;;11.46;76.12
35888;BME280;21990;42.540;23.496;2023-05-01T20:26:38;93858.06;;;11.27;76.48
35888;BME280;21990;42.540;23.496;2023-05-01T20:29:03;93849.59;;;11.27;76.42
35888;BME280;21990;42.540;23.496;2023-05-01T20:31:28;93852.41;;;11.27;76.76
35888;BME280;21990;42.540;23.496;2023-05-01T20:33:54;93847.84;;;11.24;76.24
35888;BME280;21990;42.540;23.496;2023-05-01T20:36:19;93852.47;;;11.21;76.34
35888;BME280;21990;42.540;23.496;2023-05-01T20:38:45;93855.38;;;11.16;76.08
35888;BME280;21990;42.540;23.496;2023-05-01T20:41:12;93848.72;;;11.13;76.46
35888;BME280;21990;42.540;23.496;2023-05-01T20:43:38;93852.84;;;11.12;77.05
35888;BME280;21990;42.540;23.496;2023-05-01T20:46:03;93857.22;;;10.83;77.77
35888;BME280;21990;42.540;23.496;2023-05-01T20:48:28;93853.72;;;10.77;78.42
35888;BME280;21990;42.540;23.496;2023-05-01T20:50:54;93852.94;;;10.77;77.90
35888;BME280;21990;42.540;23.496;2023-05-01T20:53:19;93856.00;;;10.79;78.24
35888;BME280;21990;42.540;23.496;2023-05-01T20:55:45;93848.34;;;10.74;77.75
35888;BME280;21990;42.540;23.496;2023-05-01T20:58:10;93853.75;;;10.72;77.75
35888;BME280;21990;42.540;23.496;2023-05-01T21:00:36;93853.53;;;10.70;78.09
35888;BME280;21990;42.540;23.496;2023-05-01T21:03:01;93849.28;;;10.58;78.23
35888;BME280;21990;42.540;23.496;2023-05-01T21:05:27;93854.63;;;10.61;78.47
35888;BME280;21990;42.540;23.496;2023-05-01T21:07:52;93853.91;;;10.55;78.00
35888;BME280;21990;42.540;23.496;2023-05-01T21:10:17;93855.78;;;10.47;78.26
35888;BME280;21990;42.540;23.496;2023-05-01T21:12:43;93851.94;;;10.50;78.05
35888;BME280;21990;42.540;23.496;2023-05-01T21:15:08;93858.88;;;10.43;79.13
35888;BME280;21990;42.540;23.496;2023-05-01T21:17:35;93864.03;;;10.39;79.33
35888;BME280;21990;42.540;23.496;2023-05-01T21:20:01;93870.03;;;10.25;79.16
35888;BME280;21990;42.540;23.496;2023-05-01T21:22:28;93861.84;;;10.27;78.76
35888;BME280;21990;42.540;23.496;2023-05-01T21:24:54;93864.91;;;10.23;79.22
35888;BME280;21990;42.540;23.496;2023-05-01T21:27:20;93854.72;;;10.20;79.56
35888;BME280;21990;42.540;23.496;2023-05-01T21:29:47;93852.72;;;10.15;79.71
35888;BME280;21990;42.540;23.496;2023-05-01T21:32:15;93857.06;;;10.11;79.20
35888;BME280;21990;42.540;23.496;2023-05-01T21:34:41;93858.06;;;10.13;80.00
35888;BME280;21990;42.540;23.496;2023-05-01T21:37:06;93860.97;;;10.02;80.16
35888;BME280;21990;42.540;23.496;2023-05-01T21:39:31;93860.75;;;9.94;79.79
35888;BME280;21990;42.540;23.496;2023-05-01T21:41:57;93859.19;;;9.99;79.92
35888;BME280;21990;42.540;23.496;2023-05-01T21:44:23;93854.38;;;9.88;79.93
35888;BME280;21990;42.540;23.496;2023-05-01T21:46:52;93860.56;;;9.87;79.59
35888;BME280;21990;42.540;23.496;2023-05-01T21:49:20;93865.69;;;9.83;80.11
35888;BME280;21990;42.540;23.496;2023-05-01T21:51:47;93862.75;;;9.64;80.40
35888;BME280;21990;42.540;23.496;2023-05-01T21:54:12;93859.38;;;9.71;80.44
35888;BME280;21990;42.540;23.496;2023-05-01T21:56:40;93861.22;;;9.58;80.69
35888;BME280;21990;42.540;23.496;2023-05-01T21:59:05;93863.03;;;9.55;81.36
35888;BME280;21990;42.540;23.496;2023-05-01T22:01:30;93870.75;;;9.49;81.19
35888;BME280;21990;42.540;23.496;2023-05-01T22:03:56;93874.34;;;9.44;80.88
35888;BME280;21990;42.540;23.496;2023-05-01T22:06:22;93871.25;;;9.53;81.17
35888;BME280;21990;42.540;23.496;2023-05-01T22:08:50;93886.59;;;9.46;81.13
35888;BME280;21990;42.540;23.496;2023-05-01T22:11:16;93883.00;;;9.51;80.82
35888;BME280;21990;42.540;23.496;2023-05-01T22:13:41;93877.38;;;9.46;80.98
35888;BME280;21990;42.540;23.496;2023-05-01T22:16:07;93879.97;;;9.44;81.44
35888;BME280;21990;42.540;23.496;2023-05-01T22:18:32;93886.09;;;9.42;80.68
35888;BME280;21990;42.540;23.496;2023-05-01T22:20:57;93882.28;;;9.34;81.54
35888;BME280;21990;42.540;23.496;2023-05-01T22:23:24;93893.28;;;9.38;81.04
35888;BME280;21990;42.540;23.496;2023-05-01T22:25:49;93892.53;;;9.32;81.56
35888;BME280;21990;42.540;23.496;2023-05-01T22:28:15;93887.44;;;9.30;81.18
35888;BME280;21990;42.540;23.496;2023-05-01T22:30:40;93886.19;;;9.26;81.68
35888;BME280;21990;42.540;23.496;2023-05-01T22:33:08;93886.47;;;9.11;82.18
35888;BME280;21990;42.540;23.496;2023-05-01T22:35:34;93896.19;;;9.16;82.13
35888;BME280;21990;42.540;23.496;2023-05-01T22:37:59;93888.50;;;9.16;81.95
35888;BME280;21990;42.540;23.496;2023-05-01T22:40:24;93895.69;;;9.12;82.02